Time;durP1;ratioP1;P1;durP2;ratioP2;P2;SDS_P1;SDS_P2;PMS_P1;PMS_P2;Temp;Humidity;BMP_temperature;BMP_pressure;BME280_temperature;BME280_humidity;BME280_pressure;Samples;Min_cycle;Max_cycle;Signal;HPM_P1;HPM_P2
2022/09/01 00:01:56;;;;;;;2.97;1.77;;;15.90;99.90;;;;;;5055285;28;20064;-77
2022/09/01 00:04:25;;;;;;;1.73;1.60;;;15.90;99.90;;;;;;5056861;28;20045;-75
2022/09/01 00:06:53;;;;;;;4.75;1.90;;;15.90;99.90;;;;;;5057915;28;20025;-75
2022/09/01 00:09:21;;;;;;;3.67;1.60;;;15.90;99.90;;;;;;5054550;28;20512;-75
2022/09/01 00:11:51;;;;;;;1.55;1.45;;;15.80;99.90;;;;;;5055910;28;20028;-74
2022/09/01 00:14:23;;;;;;;2.03;1.67;;;15.80;99.90;;;;;;5055820;28;20024;-76
2022/09/01 00:16:49;;;;;;;4.82;1.60;;;15.70;99.90;;;;;;5055215;28;20036;-77
2022/09/01 00:19:14;;;;;;;3.50;1.80;;;15.80;99.90;;;;;;5055466;28;20396;-76
2022/09/01 00:21:43;;;;;;;4.45;2.10;;;15.70;99.90;;;;;;5055634;28;20025;-76
2022/09/01 00:24:11;;;;;;;2.97;1.58;;;15.60;99.90;;;;;;5054999;28;20028;-76
2022/09/01 00:26:37;;;;;;;7.13;2.30;;;15.60;99.90;;;;;;5055553;28;20100;-75
2022/09/01 00:29:03;;;;;;;3.40;1.70;;;15.60;99.90;;;;;;5055354;28;20068;-75
2022/09/01 00:31:29;;;;;;;1.65;1.55;;;15.60;99.90;;;;;;5054776;28;20081;-76
2022/09/01 00:33:54;;;;;;;3.63;1.88;;;15.60;99.90;;;;;;5055713;28;20025;-77
2022/09/01 00:36:21;;;;;;;1.70;1.60;;;15.60;99.90;;;;;;5055581;28;20021;-76
2022/09/01 00:38:47;;;;;;;2.22;2.00;;;15.50;99.90;;;;;;5054725;28;20025;-75
2022/09/01 00:41:14;;;;;;;3.42;1.80;;;15.50;99.90;;;;;;5055170;28;20041;-75
2022/09/01 00:43:43;;;;;;;2.28;2.05;;;15.50;99.90;;;;;;5055475;28;20147;-75
2022/09/01 00:46:12;;;;;;;3.28;1.73;;;15.40;99.90;;;;;;5054625;28;20052;-77
2022/09/01 00:48:38;;;;;;;3.40;2.30;;;15.40;99.90;;;;;;5054979;28;20416;-75
2022/09/01 00:51:06;;;;;;;2.13;1.88;;;15.40;99.90;;;;;;5055048;28;20028;-76
2022/09/01 00:53:36;;;;;;;3.35;1.88;;;15.30;99.90;;;;;;5055036;28;20025;-75
2022/09/01 00:56:02;;;;;;;2.15;1.80;;;15.30;99.90;;;;;;5054476;28;20166;-76
2022/09/01 00:58:29;;;;;;;2.15;2.00;;;15.20;99.90;;;;;;5054910;28;20044;-75
2022/09/01 01:00:55;;;;;;;7.05;1.95;;;15.10;99.90;;;;;;5054930;28;20041;-75
2022/09/01 01:03:21;;;;;;;2.03;1.63;;;15.20;99.90;;;;;;5055076;28;20047;-75
2022/09/01 01:05:56;;;;;;;5.53;1.83;;;15.10;99.90;;;;;;5054336;28;20036;-76
2022/09/01 01:08:40;;;;;;;2.45;2.10;;;15.20;99.90;;;;;;5054370;28;20441;-75
2022/09/01 01:11:16;;;;;;;2.55;1.98;;;15.10;99.90;;;;;;5054774;28;20033;-75
2022/09/01 01:13:58;;;;;;;4.63;2.20;;;15.10;99.90;;;;;;5054512;28;20017;-77
2022/09/01 01:16:26;;;;;;;8.85;2.10;;;15.10;99.90;;;;;;5054615;28;20068;-77
2022/09/01 01:18:52;;;;;;;2.45;1.90;;;15.00;99.90;;;;;;5054174;28;20480;-76
2022/09/01 01:24:22;;;;;;;2.55;1.88;;;14.90;99.90;;;;;;5054514;28;20184;-75
2022/09/01 01:26:48;;;;;;;2.67;2.40;;;14.90;99.90;;;;;;5053554;28;20033;-75
2022/09/01 01:29:14;;;;;;;4.30;2.08;;;14.90;99.90;;;;;;5054241;28;20358;-76
2022/09/01 01:31:40;;;;;;;2.90;2.03;;;14.90;99.90;;;;;;5054057;28;20031;-75
2022/09/01 01:34:06;;;;;;;2.47;2.28;;;14.80;99.90;;;;;;5053621;28;20033;-76
2022/09/01 01:36:36;;;;;;;3.75;2.25;;;14.80;99.90;;;;;;5054024;28;20492;-75
2022/09/01 01:39:04;;;;;;;2.35;2.15;;;14.80;99.90;;;;;;5054130;28;20025;-74
2022/09/01 01:41:32;;;;;;;4.28;2.20;;;14.80;99.90;;;;;;5053321;28;20481;-76
2022/09/01 01:44:00;;;;;;;2.35;2.10;;;14.80;99.90;;;;;;5054182;28;20025;-76
2022/09/01 01:46:26;;;;;;;1.75;1.60;;;14.80;99.90;;;;;;5054074;28;20021;-75
2022/09/01 01:48:52;;;;;;;4.32;2.00;;;14.80;99.90;;;;;;5053375;28;20333;-76
2022/09/01 01:51:20;;;;;;;3.45;2.33;;;14.70;99.90;;;;;;5054135;28;20021;-77
2022/09/01 01:53:46;;;;;;;2.13;1.92;;;14.60;99.90;;;;;;5054180;28;20086;-76
2022/09/01 01:56:12;;;;;;;5.97;2.15;;;14.70;99.90;;;;;;5052962;28;20025;-74
2022/09/01 01:58:39;;;;;;;3.35;2.00;;;14.70;99.90;;;;;;5054040;28;20028;-74
2022/09/01 02:01:09;;;;;;;2.67;2.47;;;14.60;99.90;;;;;;5053957;28;20044;-76
2022/09/01 02:03:37;;;;;;;2.47;2.28;;;14.60;99.90;;;;;;5053647;28;20029;-76
2022/09/01 02:06:06;;;;;;;2.83;1.77;;;14.60;99.90;;;;;;5053687;28;20503;-76
2022/09/01 02:08:33;;;;;;;3.72;2.42;;;14.50;99.90;;;;;;5052998;28;20111;-76
2022/09/01 02:10:59;;;;;;;3.95;2.53;;;14.50;99.90;;;;;;5053703;28;20404;-76
2022/09/01 02:13:27;;;;;;;5.72;2.25;;;14.50;99.90;;;;;;5053464;28;20032;-75
2022/09/01 02:15:56;;;;;;;2.38;2.15;;;14.50;99.90;;;;;;5053062;28;20029;-74
2022/09/01 02:18:33;;;;;;;3.28;2.40;;;14.40;99.90;;;;;;5053319;28;20481;-76
2022/09/01 02:20:59;;;;;;;5.53;2.60;;;14.40;99.90;;;;;;5053854;28;20538;-75
2022/09/01 02:23:26;;;;;;;2.75;2.33;;;14.50;99.90;;;;;;5053407;28;20160;-75
2022/09/01 02:25:54;;;;;;;6.72;2.53;;;14.40;99.90;;;;;;5053555;28;20028;-75
2022/09/01 02:28:21;;;;;;;4.45;2.35;;;14.40;99.90;;;;;;5053317;28;20025;-74
2022/09/01 02:30:53;;;;;;;3.25;2.35;;;14.40;99.90;;;;;;5052681;28;20096;-76
2022/09/01 02:33:21;;;;;;;8.50;2.33;;;14.40;99.90;;;;;;5053680;28;20029;-76
2022/09/01 02:35:59;;;;;;;2.40;2.20;;;14.30;99.90;;;;;;5053584;28;20025;-76
2022/09/01 02:38:27;;;;;;;5.20;2.80;;;14.40;99.90;;;;;;5052830;28;20028;-76
2022/09/01 02:40:55;;;;;;;3.83;2.10;;;14.40;99.90;;;;;;5053761;28;20082;-76
2022/09/01 02:43:21;;;;;;;3.83;2.25;;;14.40;99.90;;;;;;5055153;28;20030;-76
2022/09/01 02:45:53;;;;;;;2.72;2.47;;;14.50;99.90;;;;;;5060565;28;20025;-75
2022/09/01 02:48:23;;;;;;;2.40;2.20;;;14.50;99.90;;;;;;5061740;28;20029;-76
2022/09/01 02:50:48;;;;;;;2.35;1.88;;;14.50;99.90;;;;;;5061208;28;20036;-77
2022/09/01 02:53:15;;;;;;;2.30;2.10;;;14.60;99.90;;;;;;5061570;28;20029;-75
2022/09/01 02:55:41;;;;;;;4.13;2.42;;;14.60;99.90;;;;;;5064631;28;20029;-76
2022/09/01 02:58:15;;;;;;;2.10;1.95;;;14.60;99.90;;;;;;5065731;28;20025;-75
2022/09/01 03:00:42;;;;;;;4.93;2.13;;;14.50;99.90;;;;;;5054601;28;20059;-76
2022/09/01 03:03:11;;;;;;;5.65;2.22;;;14.50;99.90;;;;;;5053304;28;20465;-76
2022/09/01 03:05:38;;;;;;;2.65;2.42;;;14.40;99.90;;;;;;5052428;28;20040;-76
2022/09/01 03:08:07;;;;;;;2.35;2.20;;;14.40;99.90;;;;;;5053560;28;20030;-74
2022/09/01 03:10:35;;;;;;;2.50;2.30;;;14.40;99.90;;;;;;5053271;28;20025;-75
2022/09/01 03:13:11;;;;;;;2.50;2.20;;;14.40;99.90;;;;;;5052235;28;20021;-74
2022/09/01 03:15:37;;;;;;;5.07;3.35;;;14.40;99.90;;;;;;5052811;28;20385;-76
2022/09/01 03:18:04;;;;;;;2.30;2.10;;;14.30;99.90;;;;;;5052876;28;20029;-76
2022/09/01 03:20:32;;;;;;;4.20;2.85;;;14.30;99.90;;;;;;5052391;28;20091;-76
2022/09/01 03:22:59;;;;;;;4.00;2.25;;;14.30;99.90;;;;;;5052927;28;20040;-76
2022/09/01 03:25:26;;;;;;;9.35;2.47;;;14.20;99.90;;;;;;5052790;28;20100;-74
2022/09/01 03:27:52;;;;;;;7.80;2.60;;;14.20;99.90;;;;;;5051986;28;20021;-75
2022/09/01 03:30:18;;;;;;;3.17;2.85;;;14.20;99.90;;;;;;5053080;28;20027;-76
2022/09/01 03:32:45;;;;;;;3.38;2.30;;;14.20;99.90;;;;;;5053061;28;20459;-76
2022/09/01 03:35:14;;;;;;;4.85;2.40;;;14.10;99.90;;;;;;5052125;28;20492;-76
2022/09/01 03:37:43;;;;;;;4.50;2.58;;;14.10;99.90;;;;;;5053033;28;20036;-75
2022/09/01 03:40:10;;;;;;;5.72;2.75;;;14.10;99.90;;;;;;5052223;28;20488;-76
2022/09/01 03:42:36;;;;;;;3.40;2.50;;;14.10;99.90;;;;;;5053362;28;20104;-76
2022/09/01 03:45:08;;;;;;;3.20;2.25;;;14.00;99.90;;;;;;5056192;28;20418;-76
2022/09/01 03:47:39;;;;;;;4.20;2.15;;;14.10;99.90;;;;;;5056026;28;20116;-77
2022/09/01 03:50:19;;;;;;;3.92;2.25;;;14.10;99.90;;;;;;5056610;28;20434;-76
2022/09/01 03:52:50;;;;;;;5.18;2.50;;;14.10;99.90;;;;;;5056217;28;20044;-76
2022/09/01 03:55:22;;;;;;;4.40;2.28;;;14.10;99.90;;;;;;5055657;28;20548;-76
2022/09/01 03:57:49;;;;;;;3.30;2.55;;;14.10;99.90;;;;;;5056550;28;20354;-76
2022/09/01 04:00:19;;;;;;;4.43;3.08;;;14.00;99.90;;;;;;5055897;28;20381;-76
2022/09/01 04:02:50;;;;;;;2.45;1.90;;;14.00;99.90;;;;;;5055394;28;20029;-74
2022/09/01 04:05:23;;;;;;;2.33;2.13;;;14.00;99.90;;;;;;5056132;28;20028;-76
2022/09/01 04:07:50;;;;;;;3.67;2.42;;;14.00;99.90;;;;;;5055868;28;20021;-76
2022/09/01 04:10:19;;;;;;;3.78;2.35;;;14.00;99.90;;;;;;5055367;28;20032;-76
2022/09/01 04:12:44;;;;;;;6.03;2.63;;;14.00;99.90;;;;;;5055921;28;20024;-76
2022/09/01 04:15:12;;;;;;;4.57;2.10;;;13.90;99.90;;;;;;5055135;28;20024;-76
2022/09/01 04:20:22;;;;;;;2.53;2.33;;;13.90;99.90;;;;;;5055936;28;20516;-75
2022/09/01 04:22:50;;;;;;;3.25;2.08;;;13.90;99.90;;;;;;5055070;28;20025;-75
2022/09/01 04:25:17;;;;;;;3.17;2.20;;;13.90;99.90;;;;;;5055861;28;20028;-75
2022/09/01 04:27:43;;;;;;;4.80;2.33;;;13.80;99.90;;;;;;5055215;28;20029;-76
2022/09/01 04:30:10;;;;;;;2.10;1.92;;;13.80;99.90;;;;;;5054706;28;20036;-77
2022/09/01 04:32:36;;;;;;;3.22;2.03;;;13.80;99.90;;;;;;5055459;28;20031;-77
2022/09/01 04:35:03;;;;;;;3.20;2.50;;;13.70;99.90;;;;;;5055196;28;20112;-75
2022/09/01 04:37:29;;;;;;;3.08;2.17;;;13.70;99.90;;;;;;5054577;28;20036;-76
2022/09/01 04:39:55;;;;;;;5.00;2.70;;;13.70;99.90;;;;;;5055198;28;20028;-76
2022/09/01 04:42:22;;;;;;;2.78;2.47;;;13.70;99.90;;;;;;5055197;28;20025;-76
2022/09/01 04:44:49;;;;;;;3.72;2.20;;;13.70;99.90;;;;;;5054191;28;20025;-76
2022/09/01 04:47:18;;;;;;;4.57;2.20;;;13.70;99.90;;;;;;5053760;28;20025;-75
2022/09/01 04:49:47;;;;;;;4.43;2.15;;;13.70;99.90;;;;;;5055296;28;20025;-76
2022/09/01 04:52:13;;;;;;;5.28;2.65;;;13.70;99.90;;;;;;5054109;28;20050;-75
2022/09/01 04:54:39;;;;;;;5.70;3.00;;;13.70;99.90;;;;;;5054860;28;20029;-77
2022/09/01 04:57:05;;;;;;;3.65;2.28;;;13.70;99.90;;;;;;5055746;28;20040;-74
2022/09/01 04:59:32;;;;;;;4.97;2.10;;;13.70;99.90;;;;;;5055223;28;20035;-76
2022/09/01 05:02:00;;;;;;;2.85;2.50;;;13.70;99.90;;;;;;5056459;28;20362;-75
2022/09/01 05:04:32;;;;;;;4.15;2.33;;;13.70;99.90;;;;;;5055763;28;20021;-76
2022/09/01 05:06:59;;;;;;;2.50;2.30;;;13.70;99.90;;;;;;5056738;28;20021;-74
2022/09/01 05:09:31;;;;;;;2.42;2.28;;;13.80;99.90;;;;;;5056483;28;20465;-76
2022/09/01 05:12:09;;;;;;;2.95;2.35;;;13.70;99.90;;;;;;5055739;28;20036;-76
2022/09/01 05:14:41;;;;;;;3.08;2.10;;;13.80;99.90;;;;;;5054729;28;20025;-74
2022/09/01 05:17:09;;;;;;;2.15;2.03;;;13.80;99.90;;;;;;5054449;28;20078;-76
2022/09/01 05:19:41;;;;;;;2.78;2.35;;;13.80;99.90;;;;;;5053574;28;20448;-75
2022/09/01 05:22:09;;;;;;;2.33;2.20;;;13.80;99.90;;;;;;5054457;28;20029;-75
2022/09/01 05:24:35;;;;;;;3.25;2.25;;;13.80;99.90;;;;;;5054099;28;20533;-76
2022/09/01 05:27:03;;;;;;;2.85;2.35;;;13.90;99.90;;;;;;5053753;28;20025;-74
2022/09/01 05:29:30;;;;;;;4.05;1.85;;;13.90;99.90;;;;;;5054467;28;20567;-74
2022/09/01 05:31:57;;;;;;;2.45;2.20;;;13.90;99.90;;;;;;5054151;28;20453;-76
2022/09/01 05:34:28;;;;;;;3.15;2.08;;;14.00;99.90;;;;;;5053835;28;20032;-75
2022/09/01 05:36:56;;;;;;;7.50;2.53;;;14.00;99.90;;;;;;5054005;28;20384;-76
2022/09/01 05:39:23;;;;;;;4.90;2.67;;;14.00;99.90;;;;;;5053742;28;20515;-76
2022/09/01 05:41:49;;;;;;;4.40;2.65;;;14.00;99.90;;;;;;5053272;28;20032;-74
2022/09/01 05:44:15;;;;;;;7.05;2.65;;;14.00;99.90;;;;;;5054237;28;20032;-75
2022/09/01 05:46:43;;;;;;;3.38;2.42;;;14.10;99.90;;;;;;5053439;28;20025;-75
2022/09/01 05:49:12;;;;;;;2.60;2.40;;;14.10;99.90;;;;;;5053977;28;20033;-75
2022/09/01 05:51:41;;;;;;;2.38;2.17;;;14.20;99.90;;;;;;5054256;28;20032;-76
2022/09/01 05:54:09;;;;;;;2.45;2.13;;;14.30;99.90;;;;;;5053224;28;20081;-75
2022/09/01 05:56:38;;;;;;;4.30;2.45;;;14.30;99.90;;;;;;5054200;28;20031;-76
2022/09/01 05:59:04;;;;;;;3.28;2.60;;;14.40;99.90;;;;;;5053888;28;20021;-75
2022/09/01 06:01:31;;;;;;;3.35;2.10;;;14.40;99.90;;;;;;5053095;28;20515;-75
2022/09/01 06:03:58;;;;;;;4.60;2.67;;;14.50;99.90;;;;;;5053432;28;20029;-77
2022/09/01 06:06:26;;;;;;;3.20;2.13;;;14.50;99.90;;;;;;5053288;28;20051;-76
2022/09/01 06:08:57;;;;;;;3.13;2.80;;;14.60;99.90;;;;;;5052868;28;20064;-76
2022/09/01 06:11:25;;;;;;;1.92;1.83;;;14.70;99.90;;;;;;5053679;28;20028;-76
2022/09/01 06:13:55;;;;;;;3.15;2.25;;;14.80;99.90;;;;;;5053656;28;20067;-75
2022/09/01 06:16:23;;;;;;;4.18;2.63;;;14.90;99.90;;;;;;5052964;28;20039;-76
2022/09/01 06:18:51;;;;;;;4.25;2.58;;;14.90;99.90;;;;;;5053349;28;20447;-76
2022/09/01 06:21:17;;;;;;;2.58;2.15;;;15.00;99.90;;;;;;5053310;28;20040;-76
2022/09/01 06:23:44;;;;;;;9.73;2.22;;;15.00;99.90;;;;;;5052852;28;20025;-75
2022/09/01 06:26:31;;;;;;;4.95;2.17;;;15.10;99.90;;;;;;5053495;28;20499;-75
2022/09/01 06:29:00;;;;;;;3.22;2.08;;;15.20;99.90;;;;;;5052751;28;20029;-75
2022/09/01 06:31:32;;;;;;;3.00;2.45;;;15.20;99.90;;;;;;5053538;28;20025;-75
2022/09/01 06:34:02;;;;;;;2.22;2.03;;;15.30;99.90;;;;;;5053510;28;20096;-75
2022/09/01 06:36:31;;;;;;;2.83;1.88;;;15.40;99.90;;;;;;5052540;28;20029;-76
2022/09/01 06:38:59;;;;;;;4.82;1.77;;;15.40;99.90;;;;;;5053291;28;20029;-76
2022/09/01 06:41:25;;;;;;;3.63;2.05;;;15.50;99.90;;;;;;5053467;28;20033;-76
2022/09/01 06:43:52;;;;;;;3.08;1.98;;;15.60;99.90;;;;;;5052772;28;20017;-77
2022/09/01 06:46:20;;;;;;;3.05;2.13;;;15.60;99.90;;;;;;5053757;28;20025;-75
2022/09/01 06:48:47;;;;;;;7.18;2.13;;;15.70;99.90;;;;;;5053735;28;20056;-76
2022/09/01 06:51:21;;;;;;;2.20;2.00;;;15.80;99.90;;;;;;5053027;28;20021;-74
2022/09/01 06:53:55;;;;;;;2.20;1.75;;;15.80;99.90;;;;;;5053607;28;20029;-74
2022/09/01 06:56:23;;;;;;;2.72;1.83;;;16.00;99.90;;;;;;5054028;28;20041;-76
2022/09/01 06:58:51;;;;;;;2.08;1.85;;;16.00;99.90;;;;;;5053522;28;20167;-75
2022/09/01 07:01:19;;;;;;;3.15;2.15;;;16.10;99.90;;;;;;5057307;28;20033;-76
2022/09/01 07:03:49;;;;;;;4.28;2.25;;;16.20;99.90;;;;;;5058061;28;20039;-75
2022/09/01 07:06:17;;;;;;;4.40;2.17;;;16.20;99.90;;;;;;5057644;28;20017;-76
2022/09/01 07:08:48;;;;;;;3.10;2.00;;;16.30;99.90;;;;;;5058016;28;20032;-75
2022/09/01 07:11:26;;;;;;;7.28;2.15;;;16.40;99.90;;;;;;5059184;28;20029;-76
2022/09/01 07:13:53;;;;;;;1.70;1.60;;;16.50;99.90;;;;;;5057596;28;20439;-77
2022/09/01 07:16:21;;;;;;;1.92;1.70;;;16.50;99.90;;;;;;5055651;28;20027;-74
2022/09/01 07:18:51;;;;;;;4.20;1.83;;;16.60;99.90;;;;;;5054532;28;20128;-75
2022/09/01 07:21:18;;;;;;;3.33;1.70;;;16.70;99.90;;;;;;5058173;28;20099;-77
2022/09/01 07:23:44;;;;;;;3.03;1.98;;;16.80;99.90;;;;;;5057452;28;20031;-76
2022/09/01 07:26:11;;;;;;;5.88;1.92;;;16.80;99.90;;;;;;5057652;28;20039;-75
2022/09/01 07:28:38;;;;;;;1.92;1.70;;;16.90;99.90;;;;;;5057214;28;20029;-76
2022/09/01 07:31:05;;;;;;;2.22;1.90;;;17.00;99.90;;;;;;5057101;28;20115;-74
2022/09/01 07:33:32;;;;;;;2.05;1.88;;;17.00;99.90;;;;;;5056646;28;20028;-75
2022/09/01 07:35:58;;;;;;;2.30;1.83;;;17.10;99.90;;;;;;5058537;28;20100;-77
2022/09/01 07:38:24;;;;;;;3.75;1.75;;;17.10;99.90;;;;;;5057405;28;20063;-76
2022/09/01 07:40:52;;;;;;;4.53;2.00;;;17.20;99.90;;;;;;5056188;28;20385;-79
2022/09/01 07:43:24;;;;;;;2.38;1.92;;;17.20;99.90;;;;;;5056726;28;20472;-76
2022/09/01 07:45:54;;;;;;;1.85;1.70;;;17.30;99.90;;;;;;5057682;28;20420;-76
2022/09/01 07:48:22;;;;;;;4.23;1.60;;;17.40;99.90;;;;;;5057187;28;20029;-75
2022/09/01 07:50:51;;;;;;;2.15;1.77;;;17.50;99.90;;;;;;5056970;28;20025;-76
2022/09/01 07:53:21;;;;;;;2.35;1.80;;;17.50;99.90;;;;;;5055992;28;20029;-76
2022/09/01 07:55:53;;;;;;;2.28;1.92;;;17.60;99.90;;;;;;5056864;28;20392;-75
2022/09/01 07:58:23;;;;;;;4.40;2.00;;;17.70;99.90;;;;;;5056977;28;20028;-76
2022/09/01 08:00:53;;;;;;;3.35;1.70;;;17.70;99.90;;;;;;5056424;28;20503;-75
2022/09/01 08:03:22;;;;;;;2.50;1.83;;;17.80;99.90;;;;;;5056688;28;20031;-76
2022/09/01 08:05:52;;;;;;;3.25;1.50;;;17.90;99.90;;;;;;5056970;28;20029;-75
2022/09/01 08:08:18;;;;;;;1.90;1.73;;;18.00;99.90;;;;;;5056024;28;20028;-76
2022/09/01 08:10:45;;;;;;;5.40;1.75;;;18.10;99.90;;;;;;5056885;28;20523;-75
2022/09/01 08:13:11;;;;;;;2.47;2.05;;;18.10;99.90;;;;;;5056433;28;20079;-76
2022/09/01 08:15:40;;;;;;;2.35;1.80;;;18.20;99.90;;;;;;5055786;28;20035;-76
2022/09/01 08:18:06;;;;;;;4.68;1.65;;;18.30;99.90;;;;;;5056253;28;20021;-75
2022/09/01 08:20:38;;;;;;;4.32;1.83;;;18.40;99.90;;;;;;5056342;28;20472;-75
2022/09/01 08:23:04;;;;;;;2.70;1.67;;;18.50;99.90;;;;;;5055849;28;20025;-76
2022/09/01 08:25:32;;;;;;;3.53;2.22;;;18.50;99.90;;;;;;5056397;28;20052;-76
2022/09/01 08:27:58;;;;;;;2.30;1.60;;;18.60;99.90;;;;;;5056299;28;20105;-76
2022/09/01 08:30:23;;;;;;;2.95;2.00;;;18.70;99.90;;;;;;5055106;28;20483;-76
2022/09/01 08:32:49;;;;;;;3.13;1.85;;;18.70;99.90;;;;;;5056508;28;20147;-76
2022/09/01 08:35:15;;;;;;;3.67;1.85;;;18.80;99.90;;;;;;5055825;28;20021;-76
2022/09/01 08:37:42;;;;;;;1.77;1.67;;;18.90;99.90;;;;;;5055699;28;20468;-76
2022/09/01 08:40:12;;;;;;;4.95;1.67;;;19.00;99.90;;;;;;5057650;28;20037;-75
2022/09/01 08:43:16;;;;;;;4.60;2.20;;;19.10;99.90;;;;;;5055944;28;20048;-77
2022/09/01 08:45:56;;;;;;;2.97;1.50;;;19.20;99.90;;;;;;5033922;28;20022;-76
2022/09/01 08:48:33;;;;;;;2.92;1.45;;;19.30;99.90;;;;;;5035121;28;20021;-76
2022/09/01 08:51:08;;;;;;;5.15;1.20;;;19.40;99.90;;;;;;5040044;28;20036;-76
2022/09/01 08:53:40;;;;;;;4.00;1.77;;;19.40;99.90;;;;;;5058888;28;20063;-76
2022/09/01 08:56:10;;;;;;;3.00;1.30;;;19.50;99.90;;;;;;5057018;28;20028;-76
2022/09/01 08:58:35;;;;;;;2.50;1.58;;;19.60;99.90;;;;;;5055068;28;20025;-76
2022/09/01 09:01:08;;;;;;;7.03;1.58;;;19.60;99.90;;;;;;5055631;28;20048;-77
2022/09/01 09:04:03;;;;;;;4.55;1.38;;;19.80;99.90;;;;;;5055013;28;20104;-75
2022/09/01 09:06:42;;;;;;;3.40;1.40;;;19.80;99.90;;;;;;5055913;28;20025;-76
2022/09/01 09:09:08;;;;;;;4.85;1.35;;;19.90;99.90;;;;;;5055614;28;20499;-76
2022/09/01 09:12:14;;;;;;;3.30;1.58;;;20.10;99.90;;;;;;5054921;28;20155;-75
2022/09/01 09:14:59;;;;;;;3.80;1.50;;;20.10;99.60;;;;;;5054266;28;20044;-74
2022/09/01 09:17:33;;;;;;;1.80;1.40;;;20.30;99.30;;;;;;5055448;28;20056;-75
2022/09/01 09:20:00;;;;;;;5.28;1.40;;;20.30;98.90;;;;;;5054550;28;20041;-75
2022/09/01 09:22:25;;;;;;;2.30;1.50;;;20.30;98.90;;;;;;5055215;28;20059;-75
2022/09/01 09:25:09;;;;;;;1.27;1.20;;;20.40;98.30;;;;;;5055043;28;20532;-76
2022/09/01 09:27:38;;;;;;;4.75;1.30;;;20.50;98.50;;;;;;5055521;28;20147;-77
2022/09/01 09:30:10;;;;;;;2.75;1.23;;;20.60;98.10;;;;;;5055159;28;20032;-77
2022/09/01 09:33:02;;;;;;;2.67;1.25;;;20.60;97.90;;;;;;5056160;28;20029;-75
2022/09/01 09:35:31;;;;;;;2.00;1.30;;;20.70;97.80;;;;;;5059604;28;20032;-76
2022/09/01 09:38:19;;;;;;;7.40;1.50;;;20.70;97.60;;;;;;5057651;28;20025;-76
2022/09/01 09:41:06;;;;;;;2.35;1.40;;;20.80;97.20;;;;;;5056782;28;20037;-76
2022/09/01 09:43:35;;;;;;;5.50;1.23;;;20.90;96.90;;;;;;5058369;28;20067;-76
2022/09/01 09:46:41;;;;;;;2.45;1.23;;;20.90;96.80;;;;;;5057139;28;20542;-76
2022/09/01 09:49:23;;;;;;;3.53;1.50;;;21.00;96.90;;;;;;5035329;28;20500;-76
2022/09/01 09:52:10;;;;;;;3.55;1.60;;;21.10;96.80;;;;;;5036573;28;20049;-75
2022/09/01 09:54:59;;;;;;;5.93;2.22;;;21.20;96.80;;;;;;5051625;28;20036;-75
2022/09/01 09:57:28;;;;;;;6.82;1.25;;;21.20;96.50;;;;;;5057814;28;20029;-76
2022/09/01 10:00:00;;;;;;;1.75;1.10;;;21.30;96.20;;;;;;5056846;28;20534;-75
2022/09/01 10:02:41;;;;;;;5.68;1.63;;;21.40;96.20;;;;;;5058676;28;20108;-77
2022/09/01 10:05:18;;;;;;;;;;;21.40;96.00;;;;;;5065174;28;20025;-76
2022/09/01 10:07:44;;;;;;;3.17;1.15;;;21.50;96.10;;;;;;5067362;28;19893;-75
2022/09/01 10:10:25;;;;;;;2.25;1.00;;;21.50;95.50;;;;;;5067858;28;20024;-76
2022/09/01 10:12:52;;;;;;;4.53;1.33;;;21.60;95.50;;;;;;5069742;28;20039;-75
2022/09/01 10:15:23;;;;;;;4.47;1.20;;;21.70;95.10;;;;;;5067962;28;20032;-76
2022/09/01 10:17:52;;;;;;;3.15;1.30;;;21.80;95.00;;;;;;5064908;28;20031;-75
2022/09/01 10:20:24;;;;;;;3.10;1.50;;;21.80;95.00;;;;;;5067713;28;20052;-76
2022/09/01 10:22:50;;;;;;;3.22;1.20;;;21.90;94.60;;;;;;5067223;28;20021;-76
2022/09/01 10:25:27;;;;;;;4.00;1.00;;;22.00;94.30;;;;;;5067709;28;20035;-76
2022/09/01 10:27:58;;;;;;;3.58;1.02;;;22.00;94.20;;;;;;5066315;28;20021;-76
2022/09/01 10:30:24;;;;;;;1.73;1.02;;;22.00;94.00;;;;;;5067478;28;20017;-77
2022/09/01 10:32:53;;;;;;;1.73;1.00;;;22.10;93.80;;;;;;5067066;28;20062;-77
2022/09/01 10:35:38;;;;;;;3.22;1.33;;;22.30;93.40;;;;;;5062774;28;20075;-76
2022/09/01 10:38:07;;;;;;;5.05;1.33;;;22.30;93.50;;;;;;5058986;28;20044;-76
2022/09/01 10:40:39;;;;;;;3.35;1.20;;;22.30;93.50;;;;;;5054080;28;20039;-75
2022/09/01 10:43:28;;;;;;;2.05;1.20;;;22.40;93.50;;;;;;5054902;28;20029;-75
2022/09/01 10:45:54;;;;;;;6.05;1.00;;;22.40;93.20;;;;;;5056279;28;20059;-76
2022/09/01 10:48:20;;;;;;;1.92;1.23;;;22.40;93.40;;;;;;5055711;28;20029;-76
2022/09/01 10:50:47;;;;;;;1.92;1.20;;;22.40;93.00;;;;;;5053358;28;20025;-76
2022/09/01 10:53:31;;;;;;;2.95;1.10;;;22.50;93.00;;;;;;5058658;28;20039;-76
2022/09/01 10:56:16;;;;;;;11.85;1.30;;;22.60;92.70;;;;;;5058720;28;20024;-76
2022/09/01 10:59:15;;;;;;;2.88;0.98;;;22.60;92.30;;;;;;5059984;28;20025;-75
2022/09/01 11:01:44;;;;;;;1.50;1.03;;;22.60;92.30;;;;;;5060460;28;20033;-76
2022/09/01 11:04:12;;;;;;;4.90;1.42;;;22.60;91.60;;;;;;5057405;28;20025;-75
2022/09/01 11:06:40;;;;;;;6.38;1.35;;;22.60;92.10;;;;;;5057271;28;20025;-75
2022/09/01 11:09:19;;;;;;;1.20;1.00;;;22.60;91.90;;;;;;5057823;28;20112;-76
2022/09/01 11:12:01;;;;;;;1.42;1.15;;;22.60;91.90;;;;;;5057284;28;20029;-75
2022/09/01 11:14:34;;;;;;;1.30;0.98;;;22.70;92.20;;;;;;5057500;28;20086;-77
2022/09/01 11:17:27;;;;;;;1.05;0.70;;;22.70;91.80;;;;;;5057140;28;20074;-77
2022/09/01 11:19:57;;;;;;;2.67;1.08;;;22.80;91.20;;;;;;5057325;28;20041;-76
2022/09/01 11:22:43;;;;;;;1.30;0.90;;;22.90;90.80;;;;;;5057096;28;20021;-76
2022/09/01 11:25:36;;;;;;;2.00;0.90;;;22.90;90.80;;;;;;5057695;28;20056;-75
2022/09/01 11:28:03;;;;;;;2.15;1.17;;;22.90;90.50;;;;;;5057756;28;20047;-76
2022/09/01 11:30:40;;;;;;;1.50;1.02;;;22.90;90.50;;;;;;5057874;28;20021;-75
2022/09/01 11:33:27;;;;;;;4.70;1.70;;;23.00;90.70;;;;;;5058283;28;20190;-75
2022/09/01 11:36:03;;;;;;;3.38;1.05;;;23.10;90.00;;;;;;5061080;28;20078;-76
2022/09/01 11:38:42;;;;;;;5.85;1.10;;;23.20;89.90;;;;;;5063947;28;20049;-76
2022/09/01 11:41:07;;;;;;;4.95;1.00;;;23.20;88.60;;;;;;5064396;28;20033;-76
2022/09/01 11:43:35;;;;;;;2.78;0.88;;;23.40;88.10;;;;;;5060580;28;20473;-75
2022/09/01 11:46:20;;;;;;;1.85;0.95;;;23.40;88.00;;;;;;5055641;28;20033;-76
2022/09/01 11:48:48;;;;;;;1.50;1.10;;;23.50;88.60;;;;;;5056723;28;20021;-76
2022/09/01 11:51:14;;;;;;;1.75;1.00;;;23.50;88.00;;;;;;5056319;28;20036;-76
2022/09/01 11:53:42;;;;;;;1.95;1.00;;;23.60;88.70;;;;;;5055737;28;20047;-76
2022/09/01 11:56:19;;;;;;;1.85;0.75;;;23.50;87.00;;;;;;5056175;28;20051;-76
2022/09/01 11:58:45;;;;;;;1.52;0.90;;;23.60;86.40;;;;;;5056193;28;20115;-75
2022/09/01 12:01:21;;;;;;;1.08;0.82;;;23.60;85.70;;;;;;5055711;28;20093;-75
2022/09/01 12:03:48;;;;;;;1.92;0.80;;;23.60;85.70;;;;;;5055914;28;20025;-77
2022/09/01 12:06:20;;;;;;;1.52;0.82;;;23.70;85.30;;;;;;5056384;28;20428;-75
2022/09/01 12:08:53;;;;;;;1.80;0.88;;;23.70;84.90;;;;;;5056772;28;20025;-76
2022/09/01 12:11:24;;;;;;;3.90;1.00;;;23.70;85.60;;;;;;5056029;28;20063;-75
2022/09/01 12:14:10;;;;;;;1.45;0.80;;;23.70;84.90;;;;;;5055847;28;20469;-76
2022/09/01 12:16:40;;;;;;;2.08;0.82;;;23.80;84.60;;;;;;5056518;28;20388;-76
2022/09/01 12:19:06;;;;;;;3.70;0.80;;;23.70;84.90;;;;;;5055536;28;20151;-75
2022/09/01 12:21:41;;;;;;;1.98;0.80;;;23.80;85.40;;;;;;5055379;28;20067;-75
2022/09/01 12:24:19;;;;;;;2.47;0.90;;;23.90;84.50;;;;;;5055891;28;20020;-76
2022/09/01 12:26:47;;;;;;;0.90;0.77;;;24.10;84.80;;;;;;5055995;28;20397;-77
2022/09/01 12:29:14;;;;;;;1.63;0.80;;;24.10;83.80;;;;;;5054886;28;20025;-77
2022/09/01 12:31:42;;;;;;;0.73;0.73;;;24.20;83.80;;;;;;5055818;28;20022;-76
2022/09/01 12:34:32;;;;;;;1.48;0.90;;;24.30;82.90;;;;;;5056525;28;20365;-76
2022/09/01 12:37:05;;;;;;;0.88;0.80;;;24.30;82.90;;;;;;5055718;28;20033;-76
2022/09/01 12:39:43;;;;;;;2.92;0.80;;;24.40;81.70;;;;;;5055951;28;20029;-76
2022/09/01 12:42:24;;;;;;;2.00;1.08;;;24.50;81.70;;;;;;5055370;28;20104;-78
2022/09/01 12:44:57;;;;;;;0.77;0.77;;;24.50;82.40;;;;;;5055857;28;20067;-77
2022/09/01 12:47:34;;;;;;;0.82;0.80;;;24.50;81.70;;;;;;5055706;28;20100;-77
2022/09/01 12:50:05;;;;;;;0.82;0.82;;;24.60;81.30;;;;;;5055800;28;20100;-76
2022/09/01 12:52:33;;;;;;;2.83;1.25;;;24.70;81.80;;;;;;5057939;28;20021;-76
2022/09/01 12:54:58;;;;;;;6.25;1.00;;;24.80;80.00;;;;;;5057097;28;20053;-75
2022/09/01 12:57:31;;;;;;;1.95;0.68;;;24.80;79.90;;;;;;5054720;28;20048;-76
2022/09/01 13:00:18;;;;;;;0.80;0.70;;;24.80;79.00;;;;;;5055324;28;20029;-77
2022/09/01 13:02:50;;;;;;;0.73;0.55;;;24.80;79.60;;;;;;5055290;28;20082;-76
2022/09/01 13:05:22;;;;;;;3.03;0.63;;;24.90;77.90;;;;;;5055939;28;20087;-76
2022/09/01 13:07:51;;;;;;;1.38;0.80;;;25.00;77.20;;;;;;5055718;28;20032;-76
2022/09/01 13:10:16;;;;;;;1.65;1.05;;;24.90;77.30;;;;;;5055840;28;20029;-75
2022/09/01 13:12:44;;;;;;;1.42;0.70;;;25.00;77.30;;;;;;5054936;28;20025;-77